createdAt,value
2017-10-06T00:00:09.040Z,76.81
2017-10-06T00:01:19.389Z,76.81
2017-10-06T00:02:29.742Z,76.9
2017-10-06T00:03:40.098Z,77.09
2017-10-06T00:04:50.528Z,77.09
2017-10-06T00:06:00.867Z,76.81
2017-10-06T00:07:10.904Z,76.81
2017-10-06T00:08:21.259Z,76.81
2017-10-06T00:09:31.600Z,76.71
2017-10-06T00:10:41.632Z,77.09
2017-10-06T00:11:51.997Z,76.81
2017-10-06T00:13:02.353Z,76.9
2017-10-06T00:14:12.707Z,76.9
2017-10-06T00:15:22.735Z,76.81
2017-10-06T00:16:33.091Z,76.96
2017-10-06T00:17:43.438Z,76.9
2017-10-06T00:18:53.785Z,76.77
2017-10-06T00:20:04.142Z,76.77
2017-10-06T00:21:14.172Z,76.86
2017-10-06T00:22:24.202Z,76.86
2017-10-06T00:23:34.552Z,76.77
2017-10-06T00:24:44.585Z,76.77
2017-10-06T00:25:54.933Z,76.86
2017-10-06T00:27:05.287Z,76.77
2017-10-06T00:28:15.644Z,76.77
2017-10-06T00:29:25.992Z,76.77
2017-10-06T00:30:35.073Z,77.06
2017-10-06T00:31:45.431Z,77.06
2017-10-06T00:32:55.476Z,77.15
2017-10-06T00:34:05.813Z,77.15
2017-10-06T00:35:16.333Z,77.15
2017-10-06T00:36:26.677Z,77.15
2017-10-06T00:37:36.400Z,77.06
2017-10-06T00:38:46.420Z,76.48
2017-10-06T00:39:56.501Z,76.48
2017-10-06T00:41:06.853Z,76.39
2017-10-06T00:42:17.212Z,76.96
2017-10-06T00:43:27.581Z,76.77
2017-10-06T00:44:37.949Z,76.39
2017-10-06T00:45:47.999Z,76.57
2017-10-06T00:46:58.341Z,76.67
2017-10-06T00:48:08.372Z,76.92
2017-10-06T00:49:18.403Z,76.48
2017-10-06T00:50:28.440Z,76.73
2017-10-06T00:51:38.796Z,76.77
2017-10-06T00:52:48.826Z,76.77
2017-10-06T00:53:59.175Z,76.86
2017-10-06T00:55:09.531Z,76.64
2017-10-06T00:56:19.881Z,76.92
2017-10-06T00:57:30.280Z,77.01
2017-10-06T00:58:40.336Z,77.11
2017-10-06T00:59:50.672Z,77.11
2017-10-06T01:01:00.730Z,77.11
2017-10-06T01:02:10.768Z,77.21
2017-10-06T01:03:21.117Z,77.11
2017-10-06T01:04:31.463Z,76.92
2017-10-06T01:05:41.800Z,77.01
2017-10-06T01:06:51.838Z,77.01
2017-10-06T01:08:02.221Z,77.11
2017-10-06T01:09:12.576Z,77.21
2017-10-06T01:10:22.929Z,77.21
2017-10-06T01:11:32.975Z,76.73
2017-10-06T01:12:42.998Z,77.11
2017-10-06T01:13:53.020Z,77.01
2017-10-06T01:15:03.411Z,77.11
2017-10-06T01:16:13.443Z,76.73
2017-10-06T01:17:23.155Z,76.82
2017-10-06T01:18:33.187Z,76.82
2017-10-06T01:19:43.206Z,76.82
2017-10-06T01:20:53.606Z,76.82
2017-10-06T01:22:03.963Z,76.73
2017-10-06T01:23:14.307Z,77.11
2017-10-06T01:24:24.340Z,76.92
2017-10-06T01:25:34.047Z,77.01
2017-10-06T01:26:44.393Z,76.45
2017-10-06T01:27:54.420Z,76.92
2017-10-06T01:29:04.170Z,77.01
2017-10-06T01:30:14.524Z,77.01
2017-10-06T01:31:24.887Z,77.21
2017-10-06T01:32:35.219Z,77.01
2017-10-06T01:33:45.263Z,77.01
2017-10-06T01:34:55.620Z,77.01
2017-10-06T01:36:05.975Z,77.01
2017-10-06T01:37:15.703Z,77.11
2017-10-06T01:38:25.735Z,77.01
2017-10-06T01:39:35.761Z,77.01
2017-10-06T01:40:46.110Z,76.73
2017-10-06T01:41:56.145Z,76.73
2017-10-06T01:43:06.492Z,76.82
2017-10-06T01:44:16.902Z,77.11
2017-10-06T01:45:26.607Z,76.82
2017-10-06T01:46:36.948Z,76.79
2017-10-06T01:47:47.016Z,76.69
2017-10-06T01:48:57.363Z,76.69
2017-10-06T01:50:07.703Z,76.69
2017-10-06T01:51:18.050Z,76.69
2017-10-06T01:52:28.399Z,76.79
2017-10-06T01:53:38.770Z,76.69
2017-10-06T01:54:48.803Z,77.17
2017-10-06T01:55:58.833Z,77.08
2017-10-06T01:57:09.188Z,76.98
2017-10-06T01:58:19.549Z,77.08
2017-10-06T01:59:29.598Z,77.08
2017-10-06T02:00:39.942Z,77.08
2017-10-06T02:01:51.114Z,77.08
2017-10-06T02:03:01.449Z,77.08
2017-10-06T02:04:11.163Z,76.98
2017-10-06T02:05:21.515Z,76.4
2017-10-06T02:06:31.867Z,76.88
2017-10-06T02:07:42.256Z,76.79
2017-10-06T02:08:52.651Z,76.69
2017-10-06T02:10:03.005Z,76.69
2017-10-06T02:11:13.374Z,76.69
2017-10-06T02:12:23.722Z,76.79
2017-10-06T02:13:34.073Z,76.88
2017-10-06T02:14:44.427Z,76.6
2017-10-06T02:15:54.764Z,76.88
2017-10-06T02:17:05.100Z,76.69
2017-10-06T02:18:15.138Z,76.79
2017-10-06T02:19:25.488Z,76.69
2017-10-06T02:20:35.839Z,76.79
2017-10-06T02:21:45.887Z,76.69
2017-10-06T02:22:56.242Z,76.98
2017-10-06T02:24:06.595Z,76.6
2017-10-06T02:25:16.371Z,76.98
2017-10-06T02:26:26.718Z,76.98
2017-10-06T02:27:37.077Z,76.88
2017-10-06T02:28:47.429Z,76.88
2017-10-06T02:29:57.777Z,76.79
2017-10-06T02:31:08.186Z,76.4
2017-10-06T02:32:18.526Z,77.08
2017-10-06T02:33:28.885Z,77.08
2017-10-06T02:34:39.231Z,76.79
2017-10-06T02:35:49.266Z,76.79
2017-10-06T02:36:59.673Z,76.79
2017-10-06T02:38:10.031Z,76.79
2017-10-06T02:39:20.100Z,76.79
2017-10-06T02:40:30.449Z,76.98
2017-10-06T02:41:40.800Z,76.79
2017-10-06T02:42:51.202Z,76.69
2017-10-06T02:44:01.244Z,76.69
2017-10-06T02:45:11.587Z,76.69
2017-10-06T02:46:21.933Z,76.79
2017-10-06T02:47:32.280Z,76.69
2017-10-06T02:48:43.591Z,76.69
2017-10-06T02:49:53.635Z,77.08
2017-10-06T02:51:03.989Z,77.08
2017-10-06T02:52:14.026Z,76.65
2017-10-06T02:53:24.378Z,77.13
2017-10-06T02:54:34.776Z,77.13
2017-10-06T02:55:45.124Z,76.98
2017-10-06T02:56:55.169Z,77.03
2017-10-06T02:58:05.521Z,76.94
2017-10-06T02:59:15.867Z,76.94
2017-10-06T03:00:26.211Z,76.94
2017-10-06T03:01:36.239Z,76.37
2017-10-06T03:33:25.293Z,73.26
2017-10-06T03:34:35.635Z,73.55
2017-10-06T03:35:45.977Z,74.12
2017-10-06T03:36:56.309Z,74.98
2017-10-06T03:38:06.637Z,75.55
2017-10-06T03:39:16.985Z,75.74
2017-10-06T03:40:27.363Z,76.31
2017-10-06T03:41:37.715Z,76.88
2017-10-06T03:42:48.061Z,76.88
2017-10-06T03:43:58.417Z,77.01
2017-10-06T03:45:08.876Z,77.01
2017-10-06T03:46:18.900Z,77.11
2017-10-06T03:47:29.237Z,77.25
2017-10-06T03:48:39.601Z,77.25
2017-10-06T03:49:49.948Z,77.34
2017-10-06T03:51:00.356Z,77.15
2017-10-06T03:52:10.691Z,77.38
2017-10-06T03:53:21.037Z,77.47
2017-10-06T03:54:31.080Z,77.28
2017-10-06T03:55:41.437Z,77.57
2017-10-06T03:56:51.780Z,77.28
2017-10-06T03:58:02.148Z,77.47
2017-10-06T03:59:12.497Z,77
2017-10-06T04:00:22.851Z,77.13
2017-10-06T04:01:32.913Z,77.03
2017-10-06T04:02:43.318Z,76.84
2017-10-06T04:03:53.345Z,77.03
2017-10-06T04:05:03.704Z,76.84
2017-10-06T04:06:13.741Z,76.84
2017-10-06T04:07:24.091Z,76.94
2017-10-06T04:08:34.441Z,76.75
2017-10-06T04:09:44.815Z,76.84
2017-10-06T04:10:55.160Z,77.03
2017-10-06T04:12:05.197Z,76.84
2017-10-06T04:13:15.555Z,77.13
2017-10-06T04:14:25.913Z,76.75
2017-10-06T04:15:35.932Z,77.13
2017-10-06T04:16:45.969Z,76.94
2017-10-06T04:17:56.003Z,77.08
2017-10-06T04:19:06.359Z,77.03
2017-10-06T04:20:16.431Z,76.84
2017-10-06T04:21:26.782Z,76.94
2017-10-06T04:22:37.136Z,77.13
2017-10-06T04:23:47.493Z,77.13
2017-10-06T04:24:57.843Z,76.84
2017-10-06T04:26:08.261Z,76.98
2017-10-06T04:27:18.298Z,76.79
2017-10-06T04:28:28.644Z,76.88
2017-10-06T04:29:38.671Z,77.17
2017-10-06T04:30:48.741Z,76.98
2017-10-06T04:31:59.187Z,76.84
2017-10-06T04:33:09.540Z,76.98
2017-10-06T04:34:19.579Z,77.08
2017-10-06T04:35:29.933Z,77.08
2017-10-06T04:36:39.955Z,76.69
2017-10-06T04:37:50.292Z,76.98
2017-10-06T04:39:00.637Z,76.98
2017-10-06T04:40:10.995Z,76.98
2017-10-06T04:41:21.395Z,76.98
2017-10-06T04:42:31.745Z,76.98
2017-10-06T04:43:41.795Z,77.17
2017-10-06T04:44:52.156Z,77.17
2017-10-06T04:46:02.238Z,77.17
2017-10-06T04:47:12.266Z,76.88
2017-10-06T04:48:22.621Z,76.75
2017-10-06T04:49:32.993Z,77.08
2017-10-06T04:50:43.355Z,77.17
2017-10-06T04:51:53.706Z,76.79
2017-10-06T04:53:04.060Z,77.08
2017-10-06T04:54:14.416Z,77.08
2017-10-06T04:55:24.766Z,77.08
2017-10-06T04:56:35.113Z,76.79
2017-10-06T04:57:45.146Z,76.98
2017-10-06T04:58:55.529Z,76.6
2017-10-06T05:00:05.922Z,76.79
2017-10-06T05:01:16.328Z,76.98
2017-10-06T05:02:26.033Z,76.79
2017-10-06T05:03:36.384Z,76.88
2017-10-06T05:04:46.082Z,76.79
2017-10-06T05:05:56.452Z,76.88
2017-10-06T05:07:06.792Z,76.69
2017-10-06T05:08:16.826Z,76.69
2017-10-06T05:09:27.186Z,77.08
2017-10-06T05:10:37.209Z,76.79
2017-10-06T05:11:47.557Z,76.88
2017-10-06T05:12:57.917Z,77.08
2017-10-06T05:14:08.259Z,77.26
2017-10-06T05:15:18.624Z,77.08
2017-10-06T05:16:28.970Z,77.08
2017-10-06T05:17:39.351Z,76.5
2017-10-06T05:18:49.725Z,76.31
2017-10-06T05:20:00.094Z,76.5
2017-10-06T05:21:10.467Z,76.5
2017-10-06T05:22:20.822Z,76.5
2017-10-06T05:23:30.853Z,76.31
2017-10-06T05:24:41.205Z,76.4
2017-10-06T05:25:51.558Z,76.31
2017-10-06T05:27:01.924Z,76.69
2017-10-06T05:28:12.279Z,76.12
2017-10-06T05:29:22.629Z,76.03
2017-10-06T05:30:32.984Z,76.03
2017-10-06T05:31:43.366Z,75.83
2017-10-06T05:32:53.391Z,75.96
2017-10-06T05:34:03.426Z,75.87
2017-10-06T05:35:13.770Z,75.96
2017-10-06T05:36:23.804Z,76.25
2017-10-06T05:37:34.172Z,76.06
2017-10-06T05:38:44.514Z,76.06
2017-10-06T05:39:54.897Z,76.06
2017-10-06T05:41:05.256Z,76.39
2017-10-06T05:42:15.337Z,76.2
2017-10-06T05:43:25.685Z,76.39
2017-10-06T05:44:36.045Z,76
2017-10-06T05:45:45.749Z,76
2017-10-06T05:46:56.101Z,76.2
2017-10-06T05:48:06.492Z,76.29
2017-10-06T05:49:16.844Z,76.29
2017-10-06T05:50:26.915Z,76.29
2017-10-06T05:51:37.276Z,76.1
2017-10-06T05:52:47.642Z,76
2017-10-06T05:53:57.684Z,75.76
2017-10-06T05:55:08.052Z,75.66
2017-10-06T05:56:18.429Z,75.85
2017-10-06T05:57:28.472Z,76.04
2017-10-06T05:58:38.828Z,75.95
2017-10-06T05:59:49.221Z,75.95
2017-10-06T06:00:59.246Z,75.76
2017-10-06T06:02:09.608Z,76.14
2017-10-06T06:03:19.637Z,76.14
2017-10-06T06:04:29.988Z,76.04
2017-10-06T06:05:40.045Z,76.42
2017-10-06T06:06:50.396Z,76.42
2017-10-06T06:08:00.422Z,75.95
2017-10-06T06:09:10.774Z,76.62
2017-10-06T06:10:21.231Z,76.62
2017-10-06T06:11:31.264Z,76.71
2017-10-06T06:12:41.633Z,76.62
2017-10-06T06:13:51.986Z,76.62
2017-10-06T06:15:02.331Z,76.52
2017-10-06T06:16:12.683Z,76.62
2017-10-06T06:17:23.039Z,76.04
2017-10-06T06:18:33.069Z,76.04
2017-10-06T06:19:43.421Z,76.04
2017-10-06T06:20:53.787Z,75.95
2017-10-06T06:22:04.168Z,76.23
2017-10-06T06:23:14.191Z,76.23
2017-10-06T06:24:24.217Z,76.04
2017-10-06T06:25:34.298Z,75.85
2017-10-06T06:26:44.654Z,75.51
2017-10-06T06:27:54.736Z,75.6
2017-10-06T06:29:05.081Z,75.6
2017-10-06T06:30:15.446Z,76.08
2017-10-06T06:31:25.802Z,76.46
2017-10-06T06:32:36.158Z,75.79
2017-10-06T06:33:46.512Z,75.51
2017-10-06T06:34:56.223Z,75.6
2017-10-06T06:36:06.570Z,75.31
2017-10-06T06:37:16.616Z,75.45
2017-10-06T06:38:26.959Z,75.54
2017-10-06T06:39:37.295Z,76.08
2017-10-06T06:40:47.645Z,75.6
2017-10-06T06:41:57.368Z,75.73
2017-10-06T06:43:07.740Z,75.54
2017-10-06T06:44:17.462Z,75.35
2017-10-06T06:45:27.495Z,75.58
2017-10-06T06:46:37.860Z,75.45
2017-10-06T06:47:48.232Z,76.02
2017-10-06T06:48:58.573Z,75.73
2017-10-06T06:50:08.277Z,75.73
2017-10-06T06:51:18.629Z,75.73
2017-10-06T06:52:28.978Z,75.54
2017-10-06T06:53:39.344Z,75.73
2017-10-06T06:54:49.703Z,75.54
2017-10-06T06:56:00.074Z,75.96
2017-10-06T06:57:10.420Z,75.39
2017-10-06T06:58:20.768Z,74.91
2017-10-06T06:59:31.113Z,74.47
2017-10-06T07:00:41.141Z,73.9
2017-10-06T07:01:51.498Z,73.45
2017-10-06T07:03:00.891Z,72.81
2017-10-06T07:04:11.237Z,73.2
2017-10-06T07:05:21.269Z,73.49
2017-10-06T07:06:31.300Z,74.06
2017-10-06T07:07:41.657Z,74.44
2017-10-06T07:08:52.082Z,74.54
2017-10-06T07:10:02.436Z,74.35
2017-10-06T07:11:12.154Z,74.01
2017-10-06T07:12:22.509Z,73.81
2017-10-06T07:13:32.550Z,74.01
2017-10-06T07:14:42.910Z,74.29
2017-10-06T07:15:53.274Z,75.35
2017-10-06T07:17:03.320Z,75.6
2017-10-06T07:18:13.678Z,75.85
2017-10-06T07:19:24.032Z,75.56
2017-10-06T07:20:34.396Z,75.75
2017-10-06T07:21:44.479Z,75.75
2017-10-06T07:22:54.505Z,75.56
2017-10-06T07:24:04.897Z,75.81
2017-10-06T07:25:15.263Z,75.71
2017-10-06T07:26:25.617Z,76
2017-10-06T07:27:36.132Z,75.75
2017-10-06T07:28:46.483Z,75.52
2017-10-06T07:29:56.825Z,75.43
2017-10-06T07:31:07.187Z,75.62
2017-10-06T07:32:17.536Z,75.95
2017-10-06T07:33:27.891Z,75.56
2017-10-06T07:34:37.918Z,75.85
2017-10-06T07:35:47.973Z,75.56
2017-10-06T07:36:58.307Z,75.65
2017-10-06T07:38:08.657Z,75.56
2017-10-06T07:39:19.002Z,75.37
2017-10-06T07:40:29.031Z,75.37
2017-10-06T07:41:39.387Z,75.27
2017-10-06T07:42:49.760Z,75.18
2017-10-06T07:43:59.803Z,75.37
2017-10-06T07:45:10.154Z,75.37
2017-10-06T07:46:20.499Z,74.98
2017-10-06T07:47:30.225Z,75.27
2017-10-06T07:48:40.258Z,75.27
2017-10-06T07:49:50.649Z,75.37
2017-10-06T07:51:00.997Z,75.18
2017-10-06T07:52:11.585Z,75.37
2017-10-06T07:53:21.952Z,75.37
2017-10-06T07:54:32.298Z,75.12
2017-10-06T07:55:42.704Z,75.08
2017-10-06T07:56:53.049Z,75.46
2017-10-06T07:58:03.398Z,75.37
2017-10-06T07:59:13.434Z,75.18
2017-10-06T08:00:23.471Z,74.98
2017-10-06T08:01:33.845Z,74.73
2017-10-06T08:02:44.189Z,74.44
2017-10-06T08:03:54.547Z,74.44
2017-10-06T08:05:04.913Z,74.44
2017-10-06T08:06:14.942Z,74.73
2017-10-06T08:07:24.681Z,74.73
2017-10-06T08:08:35.048Z,74.44
2017-10-06T08:09:45.397Z,74.64
2017-10-06T08:10:55.744Z,74.26
2017-10-06T08:12:05.784Z,74.35
2017-10-06T08:13:15.544Z,74.58
2017-10-06T08:14:25.919Z,74.44
2017-10-06T08:15:35.955Z,74.68
2017-10-06T08:16:46.300Z,74.87
2017-10-06T08:17:56.327Z,74.68
2017-10-06T08:19:06.048Z,74.19
2017-10-06T08:20:16.394Z,74.39
2017-10-06T08:21:26.753Z,74.01
2017-10-06T08:22:37.115Z,74.13
2017-10-06T08:23:47.476Z,74.13
2017-10-06T08:24:57.873Z,74.04
2017-10-06T08:26:07.905Z,73.56
2017-10-06T08:27:17.924Z,73.37
2017-10-06T08:28:27.963Z,73.27
2017-10-06T08:29:38.010Z,73.98
2017-10-06T08:30:48.809Z,73.56
2017-10-06T08:31:58.994Z,73.98
2017-10-06T08:33:09.377Z,73.88
2017-10-06T08:34:19.732Z,73.02
2017-10-06T08:35:29.785Z,73.83
2017-10-06T08:36:40.206Z,74.02
2017-10-06T08:37:50.592Z,73.63
2017-10-06T08:39:00.969Z,73.83
2017-10-06T08:40:11.315Z,73.73
2017-10-06T08:41:21.672Z,73.25
2017-10-06T08:42:31.719Z,73.28
2017-10-06T08:43:42.082Z,74.05
2017-10-06T08:44:52.128Z,73.67
2017-10-06T08:46:02.179Z,74.15
2017-10-06T08:47:12.553Z,74.25
2017-10-06T08:48:22.614Z,75.27
2017-10-06T08:49:32.971Z,74.65
2017-10-06T08:50:43.333Z,74.21
2017-10-06T08:51:53.690Z,73.83
2017-10-06T08:53:04.046Z,73.47
2017-10-06T08:54:14.404Z,73.28
2017-10-06T08:55:24.465Z,73.77
2017-10-06T08:56:34.498Z,73.38
2017-10-06T08:57:44.526Z,73.42
2017-10-06T08:58:54.891Z,73.9
2017-10-06T09:00:04.972Z,74.09
2017-10-06T09:01:15.348Z,74.82
2017-10-06T09:02:25.695Z,74.82
2017-10-06T09:03:36.056Z,74.5
2017-10-06T09:04:46.415Z,74.69
2017-10-06T09:05:56.816Z,75.65
2017-10-06T09:07:06.557Z,75.37
2017-10-06T09:08:16.594Z,75.65
2017-10-06T09:09:26.974Z,75.46
2017-10-06T09:10:37.012Z,75.42
2017-10-06T09:11:47.410Z,75.52
2017-10-06T09:12:57.757Z,75.32
2017-10-06T09:14:08.108Z,75.71
2017-10-06T09:15:18.157Z,74.4
2017-10-06T09:16:28.507Z,74.69
2017-10-06T09:17:38.871Z,74.3
2017-10-06T09:18:49.224Z,73.83
2017-10-06T09:19:59.257Z,73.38
2017-10-06T09:21:09.609Z,73.9
2017-10-06T09:22:19.956Z,72.65
2017-10-06T09:23:29.760Z,72.88
2017-10-06T09:24:40.132Z,71.95
2017-10-06T09:25:50.510Z,71.89
2017-10-06T09:27:00.877Z,72.66
2017-10-06T09:28:11.270Z,72.63
2017-10-06T09:29:21.668Z,73.2
2017-10-06T09:30:31.386Z,73.94
2017-10-06T09:31:41.424Z,74.41
2017-10-06T09:32:52.330Z,74.76
2017-10-06T09:34:02.687Z,75.31
2017-10-06T09:35:12.729Z,76.04
2017-10-06T09:36:23.089Z,76.61
2017-10-06T09:37:33.537Z,76.04
2017-10-06T09:38:43.875Z,76.39
2017-10-06T09:39:55.139Z,76.39
2017-10-06T09:41:07.911Z,76.39
2017-10-06T09:42:17.949Z,76.48
2017-10-06T09:43:27.986Z,76.06
2017-10-06T09:44:38.046Z,75.96
2017-10-06T09:45:48.429Z,76.15
2017-10-06T09:46:58.457Z,75.9
2017-10-06T09:48:08.846Z,76.06
2017-10-06T09:49:19.211Z,76.25
2017-10-06T09:50:29.579Z,75.57
2017-10-06T09:51:39.984Z,75.57
2017-10-06T09:52:50.012Z,75.77
2017-10-06T09:54:00.073Z,76.25
2017-10-06T09:55:10.447Z,75.96
2017-10-06T09:56:20.825Z,75.92
2017-10-06T09:57:31.195Z,76.12
2017-10-06T09:58:41.845Z,76.21
2017-10-06T09:59:52.522Z,76.21
2017-10-06T10:01:02.990Z,76.31
2017-10-06T10:02:13.137Z,75.63
2017-10-06T10:03:23.501Z,76.02
2017-10-06T10:04:33.853Z,75.82
2017-10-06T10:05:43.903Z,75.25
2017-10-06T10:06:54.263Z,75.25
2017-10-06T10:08:04.645Z,75.35
2017-10-06T10:09:15.013Z,75.54
2017-10-06T10:10:25.421Z,75.73
2017-10-06T10:11:35.794Z,75.54
2017-10-06T10:12:45.553Z,75.63
2017-10-06T10:13:55.945Z,75.54
2017-10-06T10:15:06.352Z,75.45
2017-10-06T10:16:18.322Z,75.15
2017-10-06T10:17:28.727Z,75.35
2017-10-06T10:18:39.084Z,74.81
2017-10-06T10:19:49.212Z,74.62
2017-10-06T10:20:59.608Z,74.71
2017-10-06T10:22:10.034Z,74.23
2017-10-06T10:23:20.382Z,74.23
2017-10-06T10:24:30.750Z,74.37
2017-10-06T10:25:41.125Z,74.94
2017-10-06T10:26:51.497Z,74.75
2017-10-06T10:28:01.885Z,74.65
2017-10-06T10:29:12.236Z,74.85
2017-10-06T10:30:22.609Z,74.52
2017-10-06T10:31:32.661Z,74.62
2017-10-06T10:32:42.382Z,74.46
2017-10-06T10:33:52.752Z,75.48
2017-10-06T10:35:03.111Z,75.77
2017-10-06T10:36:12.828Z,75.92
2017-10-06T10:37:23.192Z,76.12
2017-10-06T10:38:33.228Z,76.5
2017-10-06T10:39:43.617Z,76.37
2017-10-06T10:40:53.977Z,76.46
2017-10-06T10:42:04.338Z,76.65
2017-10-06T10:43:14.697Z,76.56
2017-10-06T10:44:25.069Z,75.98
2017-10-06T10:45:35.491Z,75.89
2017-10-06T10:46:45.528Z,76.75
2017-10-06T10:47:55.898Z,76.56
2017-10-06T10:49:06.257Z,76.07
2017-10-06T10:50:16.314Z,76.65
2017-10-06T10:51:26.402Z,76.56
2017-10-06T10:52:36.763Z,76.46
2017-10-06T10:53:46.797Z,76.42
2017-10-06T10:54:57.171Z,76.42
2017-10-06T10:56:07.550Z,76.52
2017-10-06T10:57:17.955Z,76.04
2017-10-06T10:58:28.319Z,76.23
2017-10-06T10:59:38.673Z,76.23
2017-10-06T11:00:49.064Z,76.23
2017-10-06T11:01:59.443Z,76.42
2017-10-06T11:03:09.823Z,75.95
2017-10-06T11:04:20.193Z,76.04
2017-10-06T11:05:30.560Z,75.75
2017-10-06T11:06:40.603Z,75.85
2017-10-06T11:07:50.962Z,76.04
2017-10-06T11:09:01.025Z,75.56
2017-10-06T11:10:11.391Z,75.56
2017-10-06T11:11:21.760Z,75.12
2017-10-06T11:12:32.131Z,75.21
2017-10-06T11:13:42.196Z,75.02
2017-10-06T11:14:52.602Z,75.12
2017-10-06T11:16:02.991Z,75.4
2017-10-06T11:17:13.369Z,75.79
2017-10-06T11:18:23.718Z,75.79
2017-10-06T11:19:33.148Z,75.65
2017-10-06T11:20:44.366Z,76.04
2017-10-06T11:21:54.432Z,75.95
2017-10-06T11:23:04.846Z,75.85
2017-10-06T11:24:15.213Z,75.85
2017-10-06T11:25:25.624Z,76.52
2017-10-06T11:26:35.992Z,76.52
2017-10-06T11:27:46.414Z,76.52
2017-10-06T11:28:56.843Z,76.52
2017-10-06T11:30:07.231Z,76.42
2017-10-06T11:31:17.284Z,76.23
2017-10-06T11:32:27.404Z,76.14
2017-10-06T11:33:37.460Z,76.23
2017-10-06T11:34:47.980Z,76.23
2017-10-06T11:35:58.369Z,76.19
2017-10-06T11:37:08.747Z,76.42
2017-10-06T11:38:19.111Z,76.42
2017-10-06T11:39:29.545Z,75.9
2017-10-06T11:40:39.927Z,76
2017-10-06T11:41:50.363Z,76
2017-10-06T11:43:00.807Z,75.75
2017-10-06T11:44:10.867Z,75.65
2017-10-06T11:45:20.921Z,75.46
2017-10-06T11:46:30.998Z,75.75
2017-10-06T11:47:41.397Z,75.21
2017-10-06T11:48:51.817Z,75.4
2017-10-06T11:50:02.220Z,75.02
2017-10-06T11:51:12.599Z,75.21
2017-10-06T11:52:22.667Z,75.5
2017-10-06T11:53:33.044Z,75.5
2017-10-06T11:54:43.401Z,75.31
2017-10-06T11:55:53.180Z,75.4
2017-10-06T11:57:03.240Z,75.4
2017-10-06T11:58:13.601Z,75.5
2017-10-06T11:59:23.993Z,75.6
2017-10-06T12:00:34.097Z,76.07
2017-10-06T12:01:44.451Z,75.89
2017-10-06T12:02:54.858Z,75.79
2017-10-06T12:04:04.969Z,75.89
2017-10-06T12:05:15.373Z,76.07
2017-10-06T12:06:25.477Z,75.98
2017-10-06T12:07:35.857Z,76.04
2017-10-06T12:08:46.238Z,76.14
2017-10-06T12:09:56.621Z,75.95
2017-10-06T12:11:07.016Z,76.04
2017-10-06T12:12:17.409Z,75.89
2017-10-06T12:13:27.490Z,75.79
2017-10-06T12:14:37.857Z,75.7
2017-10-06T12:15:48.251Z,75.79
2017-10-06T12:16:58.309Z,75.75
2017-10-06T12:18:08.685Z,75.95
2017-10-06T12:19:19.387Z,75.95
2017-10-06T12:20:29.770Z,75.56
2017-10-06T12:21:40.144Z,76.04
2017-10-06T12:22:50.534Z,76.04
2017-10-06T12:24:01.074Z,75.95
2017-10-06T12:25:11.461Z,75.46
2017-10-06T12:26:21.499Z,75.18
2017-10-06T12:27:31.653Z,74.16
2017-10-06T12:28:42.161Z,73.72
2017-10-06T12:29:52.304Z,73.66
2017-10-06T12:31:02.395Z,73.43
2017-10-06T12:32:12.795Z,74.19
2017-10-06T12:33:22.857Z,74.68
2017-10-06T12:34:33.245Z,75.89
2017-10-06T12:35:42.990Z,75.65
2017-10-06T12:36:53.399Z,76.23
2017-10-06T12:38:03.957Z,76.39
2017-10-06T12:39:15.573Z,76.29
2017-10-06T12:40:30.642Z,75.96
2017-10-06T12:41:46.429Z,75.77
2017-10-06T12:43:00.743Z,75.29
2017-10-06T12:44:15.250Z,75.14
2017-10-06T12:45:30.662Z,74.57
2017-10-06T12:46:45.970Z,74.27
2017-10-06T12:47:59.287Z,73.93
2017-10-06T12:49:09.655Z,73.55
2017-10-06T12:50:19.684Z,73.45
2017-10-06T12:51:30.051Z,73.26
2017-10-06T12:52:40.487Z,73.65
2017-10-06T12:53:50.862Z,74.12
2017-10-06T12:55:00.895Z,74.47
2017-10-06T12:56:11.823Z,74.37
2017-10-06T12:57:22.179Z,74.27
2017-10-06T12:58:32.218Z,74.66
2017-10-06T12:59:42.591Z,74.27
2017-10-06T13:00:52.960Z,74.27
2017-10-06T13:02:03.378Z,74.43
2017-10-06T13:03:13.731Z,73.8
2017-10-06T13:04:24.097Z,73.99
2017-10-06T13:05:34.495Z,74.08
2017-10-06T13:06:44.857Z,74.47
2017-10-06T13:07:55.220Z,73.9
2017-10-06T13:09:05.578Z,74.57
2017-10-06T13:10:15.972Z,74.27
2017-10-06T13:11:26.479Z,74.57
2017-10-06T13:12:36.542Z,74.27
2017-10-06T13:13:46.594Z,74.47
2017-10-06T13:14:56.653Z,73.9
2017-10-06T13:16:07.078Z,73.51
2017-10-06T13:17:17.438Z,73.8
2017-10-06T13:18:27.479Z,73.8
2017-10-06T13:19:37.856Z,74.37
2017-10-06T13:20:48.216Z,74.33
2017-10-06T13:21:58.571Z,74.15
2017-10-06T13:23:08.619Z,74.62
2017-10-06T13:24:18.980Z,74.43
2017-10-06T13:25:29.020Z,74.43
2017-10-06T13:26:39.381Z,74.43
2017-10-06T13:27:49.739Z,74.15
2017-10-06T13:29:00.118Z,74.72
2017-10-06T13:30:10.491Z,74.33
2017-10-06T13:31:20.851Z,74.15
2017-10-06T13:32:30.564Z,74.33
2017-10-06T13:33:40.959Z,74.43
2017-10-06T13:34:51.025Z,74.52
2017-10-06T13:36:01.384Z,74.15
2017-10-06T13:37:11.758Z,74.62
2017-10-06T13:38:22.131Z,74.97
2017-10-06T13:39:32.213Z,74.97
2017-10-06T13:40:42.577Z,75.07
2017-10-06T13:41:52.622Z,75.07
2017-10-06T13:43:02.660Z,75.64
2017-10-06T13:44:13.015Z,75.98
2017-10-06T13:45:23.404Z,75.7
2017-10-06T13:46:33.778Z,75.6
2017-10-06T13:47:44.152Z,75.7
2017-10-06T13:48:54.510Z,75.12
2017-10-06T13:50:04.893Z,75.22
2017-10-06T13:51:15.315Z,75.02
2017-10-06T13:52:25.669Z,75.31
2017-10-06T13:53:36.046Z,74.84
2017-10-06T13:54:46.128Z,74.84
2017-10-06T13:55:56.560Z,75.02
2017-10-06T13:57:07.024Z,74.93
2017-10-06T13:58:17.473Z,75.12
2017-10-06T13:59:27.582Z,75.02
2017-10-06T14:00:37.624Z,74.93
2017-10-06T14:01:47.993Z,75.41
2017-10-06T14:02:58.355Z,74.4
2017-10-06T14:04:08.720Z,74.4
2017-10-06T14:05:18.447Z,74.58
2017-10-06T14:06:28.802Z,74.49
2017-10-06T14:07:39.166Z,74.4
2017-10-06T14:08:49.259Z,74.58
2017-10-06T14:09:59.308Z,74.49
2017-10-06T14:11:09.657Z,74.58
2017-10-06T14:12:20.010Z,74.49
2017-10-06T14:13:30.357Z,74.4
2017-10-06T14:14:40.385Z,74.49
2017-10-06T14:15:50.756Z,74.49
2017-10-06T14:17:01.115Z,75.07
2017-10-06T14:18:11.149Z,74.97
2017-10-06T14:19:21.735Z,74.97
2017-10-06T14:20:32.166Z,75.16
2017-10-06T14:21:41.888Z,75.26
2017-10-06T14:22:52.335Z,75.26
2017-10-06T14:24:02.708Z,75.07
2017-10-06T14:25:13.613Z,75.07
2017-10-06T14:26:24.275Z,75.07
2017-10-06T14:27:34.659Z,75.35
2017-10-06T14:28:45.035Z,75.07
2017-10-06T14:29:55.079Z,75.07
2017-10-06T14:31:05.480Z,75.26
2017-10-06T14:32:15.915Z,75.07
2017-10-06T14:33:26.274Z,75.2
2017-10-06T14:34:36.651Z,74.97
2017-10-06T14:35:47.025Z,75.26
2017-10-06T14:36:57.413Z,75.26
2017-10-06T14:38:07.840Z,75.01
2017-10-06T14:39:18.204Z,75.26
2017-10-06T14:40:28.566Z,74.91
2017-10-06T14:41:38.940Z,75.01
2017-10-06T14:42:49.307Z,75.2
2017-10-06T14:43:59.430Z,75.2
2017-10-06T14:45:09.794Z,75.1
2017-10-06T14:46:20.183Z,74.91
2017-10-06T14:47:30.552Z,75.2
2017-10-06T14:48:40.937Z,75.1
2017-10-06T14:49:51.372Z,75.1
2017-10-06T14:51:01.750Z,75.39
2017-10-06T14:52:12.140Z,75.48
2017-10-06T14:53:22.512Z,75.68
2017-10-06T14:54:32.890Z,75.2
2017-10-06T14:55:43.304Z,75.58
2017-10-06T14:56:53.690Z,75.39
2017-10-06T14:58:04.056Z,75.87
2017-10-06T14:59:14.097Z,75.77
2017-10-06T15:00:24.471Z,75.48
2017-10-06T15:01:34.591Z,75.48
2017-10-06T15:02:44.953Z,75.96
2017-10-06T15:03:55.301Z,75.83
2017-10-06T15:05:05.670Z,75.73
2017-10-06T15:06:16.031Z,75.73
2017-10-06T15:07:26.099Z,76.21
2017-10-06T15:08:36.474Z,76.4
2017-10-06T15:09:46.529Z,76.21
2017-10-06T15:10:56.927Z,76.4
2017-10-06T15:12:06.977Z,76.21
2017-10-06T15:13:17.373Z,76.5
2017-10-06T15:14:27.730Z,76.31
2017-10-06T15:15:38.084Z,76.21
2017-10-06T15:16:48.443Z,75.89
2017-10-06T15:17:58.820Z,76.08
2017-10-06T15:19:10.398Z,76.08
2017-10-06T15:20:20.450Z,76.18
2017-10-06T15:21:30.820Z,76.18
2017-10-06T15:22:41.170Z,76.27
2017-10-06T15:23:51.545Z,76.08
2017-10-06T15:25:01.980Z,76.37
2017-10-06T15:26:12.067Z,76.46
2017-10-06T15:27:22.485Z,76.37
2017-10-06T15:28:32.867Z,76.08
2017-10-06T15:29:42.913Z,75.7
2017-10-06T15:30:53.368Z,75.79
2017-10-06T15:32:03.773Z,75.79
2017-10-06T15:33:14.539Z,75.7
2017-10-06T15:34:24.354Z,76.37
2017-10-06T15:35:34.753Z,76.37
2017-10-06T15:36:45.188Z,76.23
2017-10-06T15:37:55.594Z,76.18
2017-10-06T15:39:06.016Z,76.42